Time;durP1;ratioP1;P1;durP2;ratioP2;P2;SDS_P1;SDS_P2;PMS_P1;PMS_P2;Temp;Humidity;BMP_temperature;BMP_pressure;BME280_temperature;BME280_humidity;BME280_pressure;Samples;Min_cycle;Max_cycle;Signal;HPM_P1;HPM_P2
2023/08/01 00:04:42;;;;;;;1.05;0.95;;;;;;;21.13;97.90;99429.31;21003927;28;20079;-69
2023/08/01 00:14:44;;;;;;;1.33;1.08;;;;;;;21.12;97.40;99433.91;21010889;28;20135;-69
2023/08/01 00:24:47;;;;;;;1.67;1.00;;;;;;;21.12;97.27;99411.41;21007508;28;20064;-69
2023/08/01 00:34:50;;;;;;;1.52;1.20;;;;;;;21.13;96.95;99391.44;21012518;28;20075;-69
2023/08/01 00:44:54;;;;;;;1.10;1.00;;;;;;;21.11;96.68;99374.56;20998115;28;20044;-69
2023/08/01 00:54:55;;;;;;;2.60;1.20;;;;;;;21.11;96.60;99371.88;21000377;28;20044;-69
2023/08/01 01:04:57;;;;;;;1.70;1.00;;;;;;;21.11;96.16;99363.75;20986073;28;20119;-69
2023/08/01 01:14:59;;;;;;;1.65;1.10;;;;;;;21.11;96.03;99355.63;21001304;28;20041;-68
2023/08/01 01:25:03;;;;;;;1.65;1.20;;;;;;;21.11;95.69;99352.91;20994803;28;20105;-68
2023/08/01 01:35:05;;;;;;;2.10;0.90;;;;;;;21.10;95.47;99343.13;21029359;28;20233;-69
2023/08/01 01:45:07;;;;;;;1.77;0.85;;;;;;;21.10;95.56;99335.88;21039267;28;20051;-68
2023/08/01 01:55:08;;;;;;;1.77;1.10;;;;;;;21.05;95.26;99313.97;20992286;28;20047;-68
2023/08/01 02:05:11;;;;;;;1.98;1.05;;;;;;;20.98;95.16;99286.00;21005144;28;20082;-68
2023/08/01 02:15:12;;;;;;;1.55;1.10;;;;;;;20.99;94.60;99293.09;21015284;28;20416;-68
2023/08/01 02:25:14;;;;;;;1.33;1.13;;;;;;;20.95;94.36;99279.13;21014328;28;20044;-68
2023/08/01 02:35:16;;;;;;;1.65;1.00;;;;;;;20.92;93.60;99287.66;21018548;28;20567;-69
2023/08/01 02:45:17;;;;;;;2.95;1.27;;;;;;;20.91;93.55;99294.09;20993389;28;20084;-69
2023/08/01 02:55:19;;;;;;;2.38;1.35;;;;;;;20.89;92.81;99288.03;20995340;28;20090;-68
2023/08/01 03:05:21;;;;;;;1.75;1.02;;;;;;;20.85;92.79;99297.56;20991633;28;20803;-68
2023/08/01 03:15:22;;;;;;;2.55;1.15;;;;;;;20.80;92.95;99273.00;20974609;28;20033;-68
2023/08/01 03:25:25;;;;;;;1.50;1.30;;;;;;;20.77;92.92;99284.97;21009926;28;20397;-69
2023/08/01 03:35:29;;;;;;;1.30;1.13;;;;;;;20.75;92.94;99278.09;21027445;28;20048;-68
2023/08/01 03:45:30;;;;;;;2.00;1.30;;;;;;;20.73;92.81;99295.34;21004854;28;20051;-69
2023/08/01 03:55:32;;;;;;;1.52;1.00;;;;;;;20.68;92.54;99308.63;20998607;28;20059;-69
2023/08/01 04:05:35;;;;;;;1.52;1.00;;;;;;;20.69;92.19;99310.28;20983583;28;20415;-69
2023/08/01 04:15:37;;;;;;;1.63;1.25;;;;;;;20.68;92.11;99302.38;20981123;28;20040;-69
2023/08/01 04:25:40;;;;;;;2.63;1.20;;;;;;;20.66;91.65;99316.09;20988181;28;20047;-69
2023/08/01 04:35:42;;;;;;;0.95;0.75;;;;;;;20.64;91.18;99315.44;20986527;28;20041;-69
2023/08/01 04:45:44;;;;;;;1.45;1.02;;;;;;;20.64;90.48;99306.50;20989687;28;20056;-69
2023/08/01 04:55:45;;;;;;;0.82;0.60;;;;;;;20.61;90.27;99313.13;20984592;28;20100;-69
2023/08/01 05:05:47;;;;;;;1.48;0.70;;;;;;;20.60;89.69;99319.56;20995333;28;20048;-69
2023/08/01 05:15:49;;;;;;;0.95;0.63;;;;;;;20.62;89.70;99320.22;20993351;28;20091;-68
2023/08/01 05:25:50;;;;;;;0.80;0.60;;;;;;;20.68;89.54;99314.03;20989480;28;20072;-68
2023/08/01 05:35:52;;;;;;;1.45;0.50;;;;;;;20.73;89.22;99321.56;20977423;28;20048;-68
2023/08/01 05:45:54;;;;;;;0.50;0.43;;;;;;;20.76;89.34;99328.44;21059620;28;20055;-68
2023/08/01 05:55:56;;;;;;;0.68;0.60;;;;;;;20.78;89.32;99334.50;21076374;28;20127;-68
2023/08/01 06:05:57;;;;;;;1.27;0.70;;;;;;;20.76;89.56;99339.25;20995825;28;20044;-68
2023/08/01 06:15:59;;;;;;;1.10;0.60;;;;;;;20.73;89.95;99333.19;20999954;28;20076;-68
2023/08/01 06:26:01;;;;;;;1.27;0.85;;;;;;;20.70;90.88;99330.88;20948210;28;20055;-67
2023/08/01 06:36:03;;;;;;;0.85;0.68;;;;;;;20.70;91.57;99322.78;20924131;28;20508;-67
2023/08/01 06:46:05;;;;;;;0.80;0.50;;;;;;;20.66;91.18;99329.59;21048255;28;20543;-67
2023/08/01 06:56:07;;;;;;;1.38;0.60;;;;;;;20.73;91.32;99335.91;21029253;28;20058;-68
2023/08/01 07:06:10;;;;;;;1.08;0.60;;;;;;;20.79;91.15;99339.75;20978154;28;20151;-68
2023/08/01 07:16:11;;;;;;;1.42;0.75;;;;;;;20.82;91.24;99336.66;20994875;28;20056;-65
2023/08/01 07:26:13;;;;;;;1.52;0.63;;;;;;;20.90;91.78;99343.81;21014073;28;20098;-67
2023/08/01 07:36:17;;;;;;;3.93;0.80;;;;;;;20.93;91.15;99329.03;20983556;28;20513;-67
2023/08/01 07:46:19;;;;;;;0.93;0.60;;;;;;;20.95;93.40;99335.94;20967729;28;20455;-67
2023/08/01 07:56:21;;;;;;;1.92;0.70;;;;;;;20.92;93.38;99340.88;20970639;28;20190;-67
2023/08/01 08:06:24;;;;;;;1.75;0.70;;;;;;;20.91;93.05;99352.75;20975747;28;20067;-67
2023/08/01 08:16:25;;;;;;;0.73;0.50;;;;;;;20.91;92.89;99356.31;20976147;28;20041;-68
2023/08/01 08:26:27;;;;;;;1.17;0.80;;;;;;;20.93;92.46;99359.66;20987526;28;20528;-67
2023/08/01 08:36:30;;;;;;;1.13;0.70;;;;;;;20.95;92.15;99357.59;20952682;28;20528;-68
2023/08/01 08:46:34;;;;;;;0.70;0.55;;;;;;;20.93;91.78;99370.47;20992277;28;20063;-68
2023/08/01 08:56:35;;;;;;;1.75;0.55;;;;;;;20.94;92.11;99374.00;20982752;28;20040;-68
2023/08/01 09:06:43;;;;;;;1.20;0.80;;;;;;;20.94;92.14;99372.13;21000939;28;20050;-67
2023/08/01 09:16:47;;;;;;;4.22;0.73;;;;;;;20.91;91.88;99377.09;21018079;28;20165;-69
2023/08/01 09:26:49;;;;;;;3.13;0.70;;;;;;;20.94;92.14;99388.38;20990086;28;20123;-70
2023/08/01 09:36:51;;;;;;;1.58;0.73;;;;;;;20.93;92.41;99381.28;20973388;28;20492;-69
2023/08/01 09:46:56;;;;;;;0.75;0.60;;;;;;;20.90;92.28;99387.09;20975547;28;20048;-69
2023/08/01 09:56:58;;;;;;;0.90;0.55;;;;;;;20.93;92.74;99391.25;20991775;28;20433;-69
2023/08/01 10:07:07;;;;;;;3.25;0.90;;;;;;;20.98;93.04;99388.81;20983831;28;20044;-68
2023/08/01 10:17:11;;;;;;;1.83;0.60;;;;;;;21.14;93.62;99409.34;20990479;28;20451;-67
2023/08/01 10:27:14;;;;;;;1.13;0.70;;;;;;;21.22;94.20;99416.50;20969934;28;20095;-69
2023/08/01 10:37:16;;;;;;;0.82;0.50;;;;;;;21.20;93.89;99422.09;20995706;28;20083;-66
2023/08/01 10:47:27;;;;;;;2.58;0.70;;;;;;;21.19;94.21;99425.84;20988880;28;20060;-67
2023/08/01 10:57:30;;;;;;;0.82;0.50;;;;;;;21.22;94.21;99432.75;20987183;28;20044;-68
2023/08/01 11:07:33;;;;;;;2.42;0.70;;;;;;;21.25;95.00;99454.00;20975656;28;20052;-67
2023/08/01 11:17:36;;;;;;;1.83;0.88;;;;;;;21.29;94.85;99458.84;20986008;28;20096;-67
2023/08/01 11:27:38;;;;;;;1.33;0.60;;;;;;;21.38;95.65;99443.28;20987504;28;20044;-67
2023/08/01 11:37:40;;;;;;;2.25;0.80;;;;;;;21.42;95.25;99460.81;20983113;28;20044;-67
2023/08/01 11:47:46;;;;;;;22.05;20.15;;;;;;;21.42;94.97;99478.94;20980926;28;20062;-68
2023/08/01 11:58:01;;;;;;;6.95;3.17;;;;;;;21.43;95.19;99503.13;20976913;28;20508;-69
2023/08/01 12:08:10;;;;;;;4.38;2.40;;;;;;;21.52;94.68;99503.00;20984956;28;20447;-67
2023/08/01 12:18:19;;;;;;;2.72;2.10;;;;;;;21.62;93.57;99499.94;20966605;28;20048;-66
2023/08/01 12:28:41;;;;;;;3.13;1.83;;;;;;;21.70;92.52;99510.69;20973392;28;20644;-66
2023/08/01 12:38:43;;;;;;;3.05;1.70;;;;;;;21.80;92.97;99510.31;20975564;28;20106;-67
2023/08/01 12:48:46;;;;;;;4.07;1.83;;;;;;;21.82;92.71;99524.50;20976328;28;20600;-67
2023/08/01 12:58:47;;;;;;;3.92;1.70;;;;;;;21.84;91.64;99528.72;20972424;28;20416;-67
2023/08/01 13:08:49;;;;;;;3.97;1.38;;;;;;;21.86;90.82;99532.06;20972044;28;20044;-66
2023/08/01 13:18:51;;;;;;;2.33;1.63;;;;;;;21.91;90.08;99523.34;20950115;28;20072;-66
2023/08/01 13:28:53;;;;;;;3.90;1.60;;;;;;;21.93;90.44;99537.53;21011788;28;20044;-66
2023/08/01 13:38:55;;;;;;;3.45;1.25;;;;;;;21.97;90.14;99548.81;20993924;28;20133;-66
2023/08/01 13:48:57;;;;;;;3.97;1.20;;;;;;;21.97;89.84;99546.94;20995948;28;20103;-66
2023/08/01 13:58:58;;;;;;;2.60;1.23;;;;;;;22.01;89.67;99564.50;20989723;28;20053;-66
2023/08/01 14:09:00;;;;;;;3.22;1.20;;;;;;;22.05;89.31;99583.88;20992002;28;20044;-67
2023/08/01 14:19:03;;;;;;;2.50;1.05;;;;;;;22.06;88.42;99590.16;20994479;28;20138;-67
2023/08/01 14:29:05;;;;;;;1.00;0.80;;;;;;;22.07;87.65;99600.78;20975435;28;20052;-69
2023/08/01 14:39:07;;;;;;;1.88;0.90;;;;;;;22.10;87.00;99607.69;20978350;28;20056;-68
2023/08/01 14:49:21;;;;;;;2.57;0.90;;;;;;;22.11;87.49;99628.34;20987591;28;20056;-66
2023/08/01 14:59:25;;;;;;;1.47;0.90;;;;;;;22.10;87.98;99613.97;20992157;28;20044;-66
2023/08/01 15:09:26;;;;;;;2.58;1.08;;;;;;;22.13;88.61;99613.59;20963914;28;20048;-67
2023/08/01 15:19:28;;;;;;;2.97;0.90;;;;;;;22.16;88.37;99613.19;20989080;28;20556;-67
2023/08/01 15:29:31;;;;;;;2.78;1.00;;;;;;;22.16;88.48;99623.19;20991550;28;20055;-67
2023/08/01 15:39:34;;;;;;;2.03;0.80;;;;;;;22.15;91.60;99622.34;20968118;28;20045;-65
2023/08/01 15:49:35;;;;;;;2.53;0.90;;;;;;;22.21;93.00;99623.41;20970873;28;20048;-66
2023/08/01 15:59:37;;;;;;;1.40;0.70;;;;;;;22.26;94.02;99625.56;20972109;28;21069;-66
2023/08/01 16:09:39;;;;;;;1.10;0.80;;;;;;;22.30;93.80;99634.97;20980023;28;20048;-65
2023/08/01 16:19:42;;;;;;;1.63;0.80;;;;;;;22.35;93.29;99639.81;20988300;28;20055;-65
2023/08/01 16:29:43;;;;;;;2.33;0.73;;;;;;;22.36;92.94;99639.59;20978872;28;20445;-66
2023/08/01 16:39:45;;;;;;;1.63;0.70;;;;;;;22.34;92.70;99652.53;20985277;28;20048;-67
2023/08/01 16:49:47;;;;;;;1.55;0.77;;;;;;;22.33;91.36;99650.84;20974976;28;20050;-66
2023/08/01 16:59:51;;;;;;;1.17;0.93;;;;;;;22.28;91.27;99653.31;21003791;28;20036;-64
2023/08/01 17:09:52;;;;;;;1.27;0.68;;;;;;;22.26;91.19;99647.25;21016873;28;20122;-65
2023/08/01 17:19:58;;;;;;;3.85;0.70;;;;;;;22.19;90.42;99654.50;21000211;28;20582;-65
2023/08/01 17:30:01;;;;;;;3.55;1.00;;;;;;;22.17;90.50;99669.06;21003495;28;20743;-66
2023/08/01 17:40:03;;;;;;;2.03;0.70;;;;;;;22.15;90.53;99678.41;21001528;28;20049;-65
2023/08/01 17:50:05;;;;;;;2.42;0.70;;;;;;;22.11;90.41;99672.56;21000339;28;20078;-67
2023/08/01 18:00:07;;;;;;;0.93;0.60;;;;;;;22.08;89.93;99675.63;20995763;28;20072;-66
2023/08/01 18:10:10;;;;;;;4.22;1.17;;;;;;;21.97;89.80;99684.28;20993849;28;20063;-66
2023/08/01 18:20:12;;;;;;;2.35;0.93;;;;;;;21.90;89.73;99688.81;21013172;28;20572;-66
2023/08/01 18:30:14;;;;;;;3.05;1.00;;;;;;;21.86;89.80;99694.63;20992992;28;20048;-66
2023/08/01 18:40:19;;;;;;;3.95;1.20;;;;;;;21.82;89.47;99703.31;21066483;28;20052;-66
2023/08/01 18:50:22;;;;;;;2.95;1.13;;;;;;;21.80;89.50;99695.38;21075048;28;20055;-66
2023/08/01 19:00:25;;;;;;;;;;;;;;;21.77;89.49;99712.03;21074944;28;20040;-66
2023/08/01 19:10:27;;;;;;;3.35;1.40;;;;;;;21.75;91.48;99714.09;21060542;28;19959;-66
2023/08/01 19:20:29;;;;;;;3.45;1.52;;;;;;;21.75;91.81;99718.66;21062406;28;20051;-66
2023/08/01 19:30:33;;;;;;;2.50;1.20;;;;;;;21.73;91.86;99737.81;21005458;28;20051;-66
2023/08/01 19:40:43;;;;;;;2.75;1.20;;;;;;;21.70;91.20;99738.19;20989150;28;20060;-66
2023/08/01 19:50:45;;;;;;;3.50;1.30;;;;;;;21.65;90.79;99752.31;20995613;28;20412;-66
2023/08/01 20:00:48;;;;;;;2.65;1.10;;;;;;;21.59;90.36;99756.56;21017161;28;20113;-66
2023/08/01 20:10:57;;;;;;;2.87;1.47;;;;;;;21.57;90.16;99760.50;20991103;28;20056;-66
2023/08/01 20:21:01;;;;;;;2.53;1.00;;;;;;;21.55;89.69;99771.50;20976890;28;20051;-66
2023/08/01 20:31:03;;;;;;;2.70;1.08;;;;;;;21.51;89.76;99767.50;21000195;28;20051;-66
2023/08/01 20:41:12;;;;;;;3.33;1.25;;;;;;;21.49;89.56;99768.72;20957558;28;20060;-66
2023/08/01 20:51:14;;;;;;;2.20;1.00;;;;;;;21.45;89.46;99762.84;21012593;28;20658;-66
2023/08/01 21:01:16;;;;;;;1.88;0.90;;;;;;;21.42;89.54;99774.03;21006851;28;20060;-66
2023/08/01 21:11:18;;;;;;;3.15;0.90;;;;;;;21.40;89.35;99770.69;20979243;28;20067;-66
2023/08/01 21:21:19;;;;;;;2.58;1.02;;;;;;;21.35;89.35;99768.53;21037406;28;20082;-66
2023/08/01 21:31:21;;;;;;;4.72;1.23;;;;;;;21.37;89.25;99766.47;20995915;28;20431;-66
2023/08/01 21:41:23;;;;;;;3.28;1.17;;;;;;;21.37;89.08;99776.47;20981039;28;20102;-66
2023/08/01 21:51:25;;;;;;;2.33;1.00;;;;;;;21.36;88.92;99774.81;20994870;28;20404;-66
2023/08/01 22:01:26;;;;;;;1.80;0.90;;;;;;;21.32;89.04;99779.72;20999000;28;20123;-66
2023/08/01 22:11:28;;;;;;;2.63;1.00;;;;;;;21.29;89.02;99778.25;21007305;28;20037;-66
2023/08/01 22:21:32;;;;;;;2.50;0.95;;;;;;;21.28;89.12;99773.88;21012914;28;20076;-66
2023/08/01 22:31:35;;;;;;;2.47;1.08;;;;;;;21.26;89.05;99778.63;20993532;28;20094;-66
2023/08/01 22:41:36;;;;;;;3.05;1.17;;;;;;;21.25;89.09;99774.25;20997120;28;20052;-66
2023/08/01 22:51:38;;;;;;;2.38;1.00;;;;;;;21.23;88.95;99778.16;20993865;28;20045;-66
2023/08/01 23:01:40;;;;;;;3.13;1.00;;;;;;;21.21;89.00;99764.81;20989642;28;20064;-66
2023/08/01 23:11:42;;;;;;;1.05;0.90;;;;;;;21.20;88.77;99776.63;21016317;28;20063;-66
2023/08/01 23:21:43;;;;;;;1.77;0.80;;;;;;;21.17;88.68;99771.59;20999652;28;20444;-66
2023/08/01 23:31:45;;;;;;;2.75;0.90;;;;;;;21.17;88.42;99759.94;21000505;28;20049;-66
2023/08/01 23:41:47;;;;;;;1.15;0.82;;;;;;;21.17;88.35;99759.94;20992596;28;20045;-66
2023/08/01 23:51:49;;;;;;;1.92;1.00;;;;;;;21.15;88.14;99754.72;20994841;28;20048;-66
